North Baltimore, OH (45872)

10:08 PM EST on November 27, 2014 (GMT -0500)
Findlay | Change Station
CLOSE
Current Station
Personal Weather Station
Location: Findlay, OH
Elevation: 814 ft
Nearby Weather Stations

Elev 814 ft 41.07 °N, 83.65 °W | Updated 5 minutes ago

Overcast
Overcast
28.2 °F
Feels Like 28 °F
N
3.0
Wind Variable Wind from WNW
Gusts 10.0 mph

Today
High -- | Low -- °F
--% Chance of Precip.
Yesterday
High -- | Low -- °F
Precip. -- in
7:36 AM 5:07 PM
Waxing Crescent, 35% visible
Pressure 30.32 in
Visibility 10.0 miles
Clouds Scattered Clouds 2500 ft
Scattered Clouds 3400 ft
Overcast 6000 ft
Windchill 28 °F
Dew Point 24 °F
Humidity 85%
Rainfall -999.00 in
Snow Depth Not available.
UV 0 out of 12
Pollen .10 out of 12
Air Quality Not available.
Flu Activity Not available.
METAR KFDY 280253Z AUTO 28012KT 10SM SCT025 SCT034 OVC060 M02/M05 A3030 RMK AO2 SLP266 60000 T10171050 51008

More Conditions Fewer Conditions

Pressure 30.32 in
Visibility 10.0 miles
Clouds Scattered Clouds 2500 ft
Scattered Clouds 3400 ft
Overcast 6000 ft
Windchill 28 °F
Dew Point 24 °F
Humidity 85%
Rainfall -999.00 in
Snow Depth Not available.
UV 0 out of 12
Pollen .10 out of 12
Air Quality Not available.
Flu Activity Not available.
METAR KFDY 280253Z AUTO 28012KT 10SM SCT025 SCT034 OVC060 M02/M05 A3030 RMK AO2 SLP266 60000 T10171050 51008

More Conditions Fewer Conditions

10-Day Weather Forecast

Almanac

Astronomy

Nov. 27, 2014 Rise Set
Actual Time
Civil Twilight
Nautical Twilight
Astronomical Twilight
Moon
Length of Visible Light
Length of Day
Tomorrow will be .
, % of the Moon is Illuminated

Today's Extremes

State Highs State Lows

Community

WunderPhotos

Upload Photos

1,774,166 photos uploaded!

WunderBlogs® & News

Nearby

Air Quality

  Air Quality AQ Index Pollutant
Not available.

Snow Depth

Station Depth Elevation

Earthquake Activity

City Distance Mag. Time & Date
Minimum magnitude displayed is 2.5.

Coastal Water Temperatures

Place Temperature

Nearby Weather Stations